Time;durP1;ratioP1;P1;durP2;ratioP2;P2;SDS_P1;SDS_P2;PMS_P1;PMS_P2;Temp;Humidity;BMP_temperature;BMP_pressure;BME280_temperature;BME280_humidity;BME280_pressure;Samples;Min_cycle;Max_cycle;Signal;HPM_P1;HPM_P2
2022/09/22 00:01:24;;;;;;;7.20;1.80;;;;;;;9.28;94.08;101013.50;105943;1270;22550;-64
2022/09/22 00:03:59;;;;;;;6.30;2.00;;;;;;;9.24;94.08;101014.58;105847;1271;22496;-64
2022/09/22 00:06:47;;;;;;;6.50;1.70;;;;;;;9.21;93.99;101011.23;105929;1271;26533;-65
2022/09/22 00:09:21;;;;;;;4.70;1.30;;;;;;;9.20;94.12;101007.56;105845;1271;23862;-65
2022/09/22 00:11:54;;;;;;;6.30;1.50;;;;;;;9.19;94.02;101008.54;105896;1272;25370;-64
2022/09/22 00:14:40;;;;;;;6.90;2.20;;;;;;;9.17;93.65;101017.05;105831;1270;24384;-65
2022/09/22 00:17:12;;;;;;;11.50;2.30;;;;;;;9.14;93.69;101026.94;105925;1273;22633;-65
2022/09/22 00:19:46;;;;;;;7.60;2.00;;;;;;;9.10;93.95;101020.64;105788;1272;22614;-66
2022/09/22 00:22:17;;;;;;;8.20;1.70;;;;;;;9.07;94.06;101021.14;105745;1271;24236;-64
2022/09/22 00:24:48;;;;;;;7.90;1.90;;;;;;;9.06;93.89;101022.04;105779;1272;24326;-65
2022/09/22 00:27:19;;;;;;;7.10;1.80;;;;;;;9.07;93.96;101022.44;106001;1270;22860;-65
2022/09/22 00:29:52;;;;;;;6.60;1.90;;;;;;;9.06;93.88;101019.98;105893;1271;26528;-65
2022/09/22 00:32:24;;;;;;;8.50;1.80;;;;;;;9.05;93.96;101020.10;105631;1271;22528;-65
2022/09/22 00:34:57;;;;;;;11.70;2.10;;;;;;;9.03;93.95;101021.13;106003;1273;22539;-65
2022/09/22 00:37:29;;;;;;;10.50;2.50;;;;;;;9.00;93.90;101020.73;106193;1271;22540;-65
2022/09/22 00:40:01;;;;;;;8.30;1.90;;;;;;;8.98;93.81;101015.14;106022;1271;22560;-65
2022/09/22 00:42:32;;;;;;;8.90;1.60;;;;;;;8.96;93.83;101012.52;105718;1271;25264;-65
2022/09/22 00:45:04;;;;;;;6.50;1.70;;;;;;;8.93;93.52;101012.70;105783;1270;25725;-65
2022/09/22 00:47:39;;;;;;;5.90;1.50;;;;;;;8.90;93.47;101009.99;105810;1271;25712;-66
2022/09/22 00:50:17;;;;;;;7.50;2.30;;;;;;;8.88;93.43;101009.92;106013;1272;22590;-65
2022/09/22 00:52:52;;;;;;;11.30;2.60;;;;;;;8.86;93.67;101007.93;106166;1270;25425;-65
2022/09/22 00:55:29;;;;;;;9.80;2.40;;;;;;;8.82;93.80;101003.52;106021;1271;25408;-65
2022/09/22 00:58:02;;;;;;;7.60;1.80;;;;;;;8.80;93.94;101000.48;105691;1271;22729;-64
2022/09/22 01:00:33;;;;;;;7.30;2.10;;;;;;;8.79;93.91;100999.42;105847;1271;24299;-64
2022/09/22 01:03:09;;;;;;;9.50;2.60;;;;;;;8.76;93.98;100998.06;105988;1270;22605;-64
2022/09/22 01:05:42;;;;;;;9.40;2.30;;;;;;;8.73;94.26;100995.79;105949;1271;25536;-64
2022/09/22 01:08:15;;;;;;;8.60;1.90;;;;;;;8.70;94.25;100996.15;105858;1271;24334;-65
2022/09/22 01:10:47;;;;;;;8.50;2.20;;;;;;;8.66;94.20;100995.08;106027;1272;25476;-64
2022/09/22 01:13:27;;;;;;;10.40;2.30;;;;;;;8.64;94.17;100994.49;105685;1270;22519;-65
2022/09/22 01:16:13;;;;;;;13.80;2.70;;;;;;;8.63;94.18;101002.15;105926;1271;24358;-64
2022/09/22 01:18:56;;;;;;;12.90;2.20;;;;;;;8.61;94.02;101003.52;105719;1271;22519;-64
2022/09/22 01:21:40;;;;;;;8.60;2.40;;;;;;;8.57;93.97;101012.39;105889;1271;22553;-65
2022/09/22 01:24:56;;;;;;;9.60;2.00;;;;;;;8.55;94.17;101011.42;106183;1272;22592;-65
2022/09/22 01:27:45;;;;;;;9.60;1.80;;;;;;;8.47;94.07;101012.15;106008;1271;22551;-64
2022/09/22 01:30:29;;;;;;;7.60;2.10;;;;;;;8.39;94.47;101010.73;105788;1271;25398;-65
2022/09/22 01:33:23;;;;;;;13.90;2.40;;;;;;;8.34;94.57;101011.14;105812;1271;22724;-65
2022/09/22 01:36:05;;;;;;;12.10;2.10;;;;;;;8.32;94.75;101012.34;105751;1271;23289;-64
2022/09/22 01:38:46;;;;;;;7.20;1.90;;;;;;;8.28;95.15;101015.78;105826;1271;22688;-64
2022/09/22 01:41:34;;;;;;;8.40;1.90;;;;;;;8.25;95.46;101017.04;105682;1271;22543;-64
2022/09/22 01:44:10;;;;;;;9.10;2.10;;;;;;;8.24;95.68;101014.05;105742;1271;24445;-64
2022/09/22 01:46:50;;;;;;;11.20;2.20;;;;;;;8.21;95.69;101012.23;105971;1271;22806;-64
2022/09/22 01:49:23;;;;;;;8.80;2.40;;;;;;;8.20;95.76;101007.43;105733;1272;22532;-64
2022/09/22 01:51:58;;;;;;;8.30;2.50;;;;;;;8.17;95.74;101001.87;105570;1271;22679;-66
2022/09/22 01:54:36;;;;;;;15.00;3.00;;;;;;;8.18;95.66;100995.23;105785;1271;22719;-66
2022/09/22 01:57:14;;;;;;;10.30;2.40;;;;;;;8.17;95.39;100993.44;105653;1271;25507;-64
2022/09/22 01:59:52;;;;;;;10.30;2.40;;;;;;;8.16;95.43;100992.77;105877;1271;25328;-65
2022/09/22 02:02:27;;;;;;;9.00;2.40;;;;;;;8.15;95.43;100990.48;105546;1271;25399;-64
2022/09/22 02:05:03;;;;;;;14.40;2.80;;;;;;;8.12;95.39;100990.15;105735;1271;25442;-65
2022/09/22 02:07:39;;;;;;;9.60;2.40;;;;;;;8.10;95.28;100987.14;105838;1271;24434;-65
2022/09/22 02:10:15;;;;;;;11.20;2.00;;;;;;;8.06;95.34;100988.30;105937;1271;22553;-64
2022/09/22 02:12:48;;;;;;;13.50;2.50;;;;;;;8.00;95.10;100986.34;105860;1271;22731;-65
2022/09/22 02:18:13;;;;;;;11.70;2.30;;;;;;;7.89;94.99;100992.14;105736;1271;25494;-65
2022/09/22 02:20:44;;;;;;;12.00;2.80;;;;;;;7.85;95.21;100992.81;105853;1271;22618;-65
2022/09/22 02:23:16;;;;;;;9.60;2.50;;;;;;;7.84;95.24;100990.14;105793;1272;22543;-65
2022/09/22 02:25:47;;;;;;;9.10;2.20;;;;;;;7.84;95.06;100997.00;105791;1271;22548;-65
2022/09/22 02:28:22;;;;;;;10.30;2.30;;;;;;;7.81;95.04;101000.11;105760;1271;22772;-65
2022/09/22 02:30:56;;;;;;;11.80;3.30;;;;;;;7.76;95.21;100993.03;105684;1271;22716;-64
2022/09/22 02:33:30;;;;;;;8.20;1.90;;;;;;;7.73;95.04;100994.87;105717;1271;25439;-65
2022/09/22 02:36:12;;;;;;;14.00;2.80;;;;;;;7.71;95.16;100997.05;105610;1271;25250;-65
2022/09/22 02:38:49;;;;;;;10.20;2.60;;;;;;;7.70;94.95;100994.05;105926;1271;26610;-64
2022/09/22 02:41:28;;;;;;;13.80;2.90;;;;;;;7.68;94.77;100996.73;105855;1271;25346;-64
2022/09/22 02:44:07;;;;;;;9.50;2.20;;;;;;;7.65;94.62;100995.95;105976;1271;24282;-64
2022/09/22 02:46:44;;;;;;;9.50;2.30;;;;;;;7.63;94.62;100994.44;105724;1271;22471;-65
2022/09/22 02:49:18;;;;;;;10.50;3.00;;;;;;;7.60;94.62;100992.77;105890;1271;24438;-64
2022/09/22 02:51:53;;;;;;;7.80;2.70;;;;;;;7.58;94.97;100994.83;105759;1271;22772;-65
2022/09/22 02:54:24;;;;;;;11.50;2.90;;;;;;;7.55;95.08;100993.55;105914;1271;22699;-64
2022/09/22 02:56:55;;;;;;;9.40;2.60;;;;;;;7.52;94.74;100987.13;105968;1271;25381;-64
2022/09/22 02:59:28;;;;;;;9.30;2.40;;;;;;;7.48;94.30;100984.62;105876;1270;22622;-64
2022/09/22 03:01:59;;;;;;;8.00;2.20;;;;;;;7.45;93.96;100987.09;105942;1271;22615;-64
2022/09/22 03:04:30;;;;;;;8.30;2.50;;;;;;;7.42;93.65;100991.38;106144;1271;22570;-64
2022/09/22 03:07:01;;;;;;;10.50;2.90;;;;;;;7.38;93.44;100995.77;105828;1271;22778;-64
2022/09/22 03:09:32;;;;;;;10.20;2.80;;;;;;;7.37;93.86;100999.16;105947;1270;26204;-64
2022/09/22 03:12:04;;;;;;;10.30;2.70;;;;;;;7.34;94.12;101000.40;105815;1271;22666;-64
2022/09/22 03:14:37;;;;;;;8.30;1.80;;;;;;;7.30;93.50;101002.75;106052;1270;22591;-64
2022/09/22 03:17:08;;;;;;;6.20;1.70;;;;;;;7.24;93.02;100997.81;105981;1271;22556;-64
2022/09/22 03:19:39;;;;;;;7.50;2.20;;;;;;;7.18;92.88;101003.20;105922;1270;25339;-65
2022/09/22 03:22:10;;;;;;;8.20;2.00;;;;;;;7.14;92.69;100999.36;105905;1270;22739;-63
2022/09/22 03:24:42;;;;;;;9.00;2.40;;;;;;;7.08;92.60;101001.98;105884;1270;22747;-64
2022/09/22 03:27:13;;;;;;;10.70;2.20;;;;;;;7.02;92.52;101002.38;106057;1271;24402;-64
2022/09/22 03:29:45;;;;;;;8.60;1.90;;;;;;;6.97;92.35;101003.80;105980;1270;24265;-63
2022/09/22 03:32:16;;;;;;;8.10;1.90;;;;;;;6.92;92.28;101004.08;105890;1270;25488;-63
2022/09/22 03:34:47;;;;;;;7.30;1.80;;;;;;;6.88;92.13;101002.36;106040;1271;22693;-65
2022/09/22 03:37:18;;;;;;;9.50;2.00;;;;;;;6.82;92.04;101003.78;106172;1270;22551;-64
2022/09/22 03:39:50;;;;;;;11.00;2.10;;;;;;;6.76;91.90;101004.02;106065;1270;22477;-64
2022/09/22 03:42:22;;;;;;;11.30;2.20;;;;;;;6.71;91.85;101006.44;106251;1270;22552;-64
2022/09/22 03:44:53;;;;;;;7.30;1.90;;;;;;;6.66;91.88;101008.86;106113;1270;25214;-65
2022/09/22 03:47:28;;;;;;;7.10;1.70;;;;;;;6.63;92.15;101008.69;106078;1271;22692;-64
2022/09/22 03:49:59;;;;;;;7.20;1.80;;;;;;;6.58;91.90;101008.80;106040;1271;22617;-63
2022/09/22 03:52:32;;;;;;;8.40;2.40;;;;;;;6.54;91.90;101008.35;105960;1271;25519;-64
2022/09/22 03:55:04;;;;;;;9.50;2.30;;;;;;;6.50;92.04;101007.10;105944;1271;22525;-63
2022/09/22 03:57:35;;;;;;;8.70;2.40;;;;;;;6.50;92.55;101010.03;106167;1271;22692;-63
2022/09/22 04:00:10;;;;;;;10.00;2.30;;;;;;;6.50;92.82;101011.45;106137;1271;24241;-64
2022/09/22 04:02:42;;;;;;;9.60;2.70;;;;;;;6.49;92.59;101008.33;106327;1271;25444;-64
2022/09/22 04:05:13;;;;;;;8.00;2.20;;;;;;;6.46;92.49;101009.50;106050;1270;23182;-64
2022/09/22 04:07:44;;;;;;;9.10;2.10;;;;;;;6.44;92.65;101008.98;106025;1271;22866;-64
2022/09/22 04:10:16;;;;;;;11.00;2.70;;;;;;;6.43;92.50;101013.99;105992;1271;25261;-64
2022/09/22 04:12:47;;;;;;;12.30;3.00;;;;;;;6.42;92.70;101018.79;105847;1271;24440;-64
2022/09/22 04:15:18;;;;;;;12.40;3.10;;;;;;;6.40;92.42;101019.88;105814;1271;24309;-64
2022/09/22 04:17:50;;;;;;;8.90;2.40;;;;;;;6.36;92.78;101023.37;106053;1271;22533;-64
2022/09/22 04:20:21;;;;;;;12.00;3.00;;;;;;;6.31;92.28;101024.13;106246;1271;24308;-64
2022/09/22 04:22:53;;;;;;;9.40;2.40;;;;;;;6.26;92.11;101020.98;106128;1271;22550;-64
2022/09/22 04:25:24;;;;;;;9.60;2.70;;;;;;;6.21;92.08;101023.95;105932;1271;22818;-64
2022/09/22 04:27:55;;;;;;;8.90;2.10;;;;;;;6.16;92.02;101023.98;106062;1271;23421;-65
2022/09/22 04:30:27;;;;;;;12.00;2.90;;;;;;;6.11;91.86;101024.65;106072;1271;25392;-64
2022/09/22 04:32:59;;;;;;;9.10;2.60;;;;;;;6.07;91.82;101022.36;106149;1271;22691;-64
2022/09/22 04:35:31;;;;;;;10.60;3.10;;;;;;;6.04;91.85;101024.17;105815;1271;24420;-64
2022/09/22 04:38:02;;;;;;;9.20;2.40;;;;;;;6.02;91.76;101025.95;106061;1271;22577;-64
2022/09/22 04:40:33;;;;;;;10.70;2.80;;;;;;;5.98;91.70;101025.88;106074;1272;24430;-64
2022/09/22 04:43:05;;;;;;;11.40;3.10;;;;;;;5.94;91.89;101024.88;106708;1270;25668;-65
2022/09/22 04:45:37;;;;;;;11.40;2.50;;;;;;;5.90;92.02;101026.38;105920;1270;22560;-64
2022/09/22 04:48:08;;;;;;;15.30;3.10;;;;;;;5.89;92.13;101026.72;106173;1271;24362;-64
2022/09/22 04:50:39;;;;;;;13.00;3.30;;;;;;;5.88;92.21;101025.30;105977;1271;24307;-64
2022/09/22 04:53:12;;;;;;;9.60;3.00;;;;;;;5.87;92.36;101026.20;105874;1270;22525;-64
2022/09/22 04:55:44;;;;;;;10.50;3.30;;;;;;;5.86;92.33;101029.32;106005;1271;25411;-65
2022/09/22 04:58:16;;;;;;;12.70;3.30;;;;;;;5.85;92.31;101033.70;105919;1271;26357;-64
2022/09/22 05:00:47;;;;;;;12.10;3.00;;;;;;;5.85;92.36;101033.77;106038;1271;23898;-65
2022/09/22 05:03:19;;;;;;;11.20;3.00;;;;;;;5.84;92.22;101033.30;106133;1270;23603;-64
2022/09/22 05:05:50;;;;;;;12.30;2.80;;;;;;;5.81;92.23;101034.39;105798;1271;22687;-64
2022/09/22 05:08:22;;;;;;;10.10;3.10;;;;;;;5.78;92.35;101036.40;105898;1270;25368;-64
2022/09/22 05:10:55;;;;;;;16.10;3.80;;;;;;;5.79;92.59;101035.21;107759;1271;24127;-64
2022/09/22 05:13:29;;;;;;;12.50;2.80;;;;;;;5.79;92.62;101033.71;107593;1271;24464;-63
2022/09/22 05:16:00;;;;;;;11.40;2.60;;;;;;;5.79;92.87;101033.95;105858;1270;22790;-64
2022/09/22 05:18:32;;;;;;;14.70;3.40;;;;;;;5.79;92.82;101034.96;106424;1271;25319;-64
2022/09/22 05:21:04;;;;;;;14.70;3.90;;;;;;;5.82;92.93;101036.81;105595;1270;23068;-64
2022/09/22 05:23:35;;;;;;;17.50;6.50;;;;;;;5.83;93.04;101033.08;105783;1271;25609;-64
2022/09/22 05:26:07;;;;;;;14.20;3.70;;;;;;;5.85;93.34;101035.98;105998;1271;25088;-65
2022/09/22 05:28:39;;;;;;;10.20;3.20;;;;;;;5.88;93.93;101033.79;105964;1271;22618;-64
2022/09/22 05:31:11;;;;;;;12.30;3.30;;;;;;;5.89;94.14;101042.23;106006;1271;24299;-64
2022/09/22 05:33:43;;;;;;;9.50;3.10;;;;;;;5.90;94.27;101041.09;106242;1271;22551;-64
2022/09/22 05:36:14;;;;;;;16.90;3.80;;;;;;;5.91;94.75;101047.82;105973;1271;22558;-64
2022/09/22 05:38:46;;;;;;;16.30;4.30;;;;;;;5.92;95.09;101046.86;105913;1271;24098;-64
2022/09/22 05:41:17;;;;;;;19.60;4.60;;;;;;;5.92;95.36;101042.80;106297;1271;25184;-64
2022/09/22 05:43:48;;;;;;;16.90;4.80;;;;;;;5.96;95.80;101045.96;106141;1270;22858;-64
2022/09/22 05:46:20;;;;;;;22.00;6.90;;;;;;;6.01;96.13;101046.48;106002;1271;22552;-64
2022/09/22 05:48:52;;;;;;;19.10;6.30;;;;;;;6.07;96.62;101050.33;105970;1271;22655;-64
2022/09/22 05:51:24;;;;;;;17.50;5.60;;;;;;;6.13;97.06;101052.88;105957;1271;25344;-65
2022/09/22 05:53:56;;;;;;;14.40;4.90;;;;;;;6.18;97.24;101052.84;106083;1270;23187;-65
2022/09/22 05:56:28;;;;;;;15.20;5.30;;;;;;;6.22;97.26;101053.23;105798;1270;22565;-65
2022/09/22 05:59:01;;;;;;;17.40;5.80;;;;;;;6.28;97.43;101055.10;105886;1270;22532;-64
2022/09/22 06:01:33;;;;;;;15.80;5.90;;;;;;;6.33;97.61;101057.91;105923;1270;22534;-65
2022/09/22 06:04:04;;;;;;;20.50;6.20;;;;;;;6.37;97.72;101059.95;106016;1270;24334;-64
2022/09/22 06:06:35;;;;;;;17.40;6.10;;;;;;;6.42;97.90;101061.40;106075;1270;24420;-64
2022/09/22 06:09:07;;;;;;;18.60;6.00;;;;;;;6.47;98.07;101058.84;101923;1270;5469646;-65
2022/09/22 06:11:38;;;;;;;19.20;7.20;;;;;;;6.51;98.19;101061.45;105916;1270;22550;-64
2022/09/22 06:14:11;;;;;;;20.70;8.40;;;;;;;6.57;98.44;101059.23;105801;1270;22542;-64
2022/09/22 06:16:42;;;;;;;23.60;10.10;;;;;;;6.63;98.72;101063.77;105895;1270;22530;-64
2022/09/22 06:19:14;;;;;;;27.40;9.50;;;;;;;6.69;98.70;101070.39;105923;1270;24228;-65
2022/09/22 06:21:46;;;;;;;24.10;8.10;;;;;;;6.71;98.72;101068.44;105843;1270;25332;-65
2022/09/22 06:24:18;;;;;;;24.10;9.40;;;;;;;6.76;99.28;101074.24;105816;1270;25374;-64
2022/09/22 06:26:49;;;;;;;26.20;10.60;;;;;;;6.84;99.48;101075.26;105789;1270;24231;-64
2022/09/22 06:29:21;;;;;;;21.60;9.00;;;;;;;6.89;99.44;101074.97;105969;1270;22693;-65
2022/09/22 06:31:52;;;;;;;33.00;9.40;;;;;;;6.89;99.19;101080.04;105849;1271;22479;-65
2022/09/22 06:34:25;;;;;;;27.00;8.70;;;;;;;6.91;99.20;101081.20;106071;1270;23977;-66
2022/09/22 06:36:58;;;;;;;24.70;9.30;;;;;;;6.94;99.35;101082.92;106030;1270;22533;-66
2022/09/22 06:39:29;;;;;;;20.00;9.40;;;;;;;7.00;99.63;101089.36;106180;1270;22685;-67
2022/09/22 06:42:01;;;;;;;23.40;9.80;;;;;;;7.08;99.68;101094.25;105951;1270;25312;-65
2022/09/22 06:44:32;;;;;;;22.40;9.30;;;;;;;7.14;99.69;101094.41;105968;1270;22548;-65
2022/09/22 06:47:07;;;;;;;24.20;10.80;;;;;;;7.21;99.72;101094.38;105976;1270;22625;-65
2022/09/22 06:49:40;;;;;;;22.90;9.80;;;;;;;7.31;99.80;101093.96;106038;1270;22687;-67
2022/09/22 06:52:13;;;;;;;22.30;9.30;;;;;;;7.42;99.80;101095.27;106051;1270;22791;-64
2022/09/22 06:54:47;;;;;;;19.30;9.00;;;;;;;7.50;99.52;101094.84;106002;1270;22553;-65
2022/09/22 06:57:18;;;;;;;18.60;7.70;;;;;;;7.53;99.25;101098.95;105891;1270;22576;-65
2022/09/22 06:59:50;;;;;;;17.80;8.30;;;;;;;7.56;99.08;101101.57;106127;1270;25357;-64
2022/09/22 07:02:28;;;;;;;19.50;8.10;;;;;;;7.59;98.96;101102.77;105863;1270;22548;-65
2022/09/22 07:04:59;;;;;;;18.80;7.90;;;;;;;7.60;98.83;101097.83;105881;1270;25537;-65
2022/09/22 07:07:31;;;;;;;17.60;8.10;;;;;;;7.59;98.63;101103.73;105921;1270;22717;-65
2022/09/22 07:10:03;;;;;;;19.50;8.30;;;;;;;7.63;99.08;101101.45;106129;1270;22608;-66
2022/09/22 07:12:34;;;;;;;18.20;8.00;;;;;;;7.67;99.21;101102.13;106075;1270;25345;-65
2022/09/22 07:15:06;;;;;;;17.40;7.20;;;;;;;7.74;99.23;101103.09;105937;1270;25328;-66
2022/09/22 07:17:38;;;;;;;17.90;7.50;;;;;;;7.79;99.21;101103.98;105801;1270;22550;-66
2022/09/22 07:20:11;;;;;;;18.20;7.10;;;;;;;7.81;99.09;101104.54;105967;1270;26993;-66
2022/09/22 07:22:42;;;;;;;16.10;6.90;;;;;;;7.81;98.83;101098.50;105923;1270;22632;-65
2022/09/22 07:25:15;;;;;;;15.90;7.40;;;;;;;7.81;98.79;101098.27;105980;1270;22653;-65
2022/09/22 07:27:47;;;;;;;20.70;8.10;;;;;;;7.83;98.71;101098.77;105927;1270;24251;-65
2022/09/22 07:30:21;;;;;;;14.90;6.20;;;;;;;7.88;98.89;101103.06;106051;1270;25483;-65
2022/09/22 07:32:53;;;;;;;19.10;7.50;;;;;;;7.93;99.08;101099.69;106053;1270;23921;-65
2022/09/22 07:35:27;;;;;;;16.10;6.80;;;;;;;8.00;99.53;101104.33;106078;1270;24304;-65
2022/09/22 07:38:02;;;;;;;17.90;7.30;;;;;;;8.05;99.38;101102.98;106062;1270;22556;-66
2022/09/22 07:40:34;;;;;;;17.40;7.20;;;;;;;8.08;99.08;101107.80;105796;1270;25640;-65
2022/09/22 07:43:06;;;;;;;18.00;6.50;;;;;;;8.13;98.94;101102.52;106158;1270;22542;-66
2022/09/22 07:45:38;;;;;;;17.70;7.00;;;;;;;8.18;98.91;101103.09;106049;1270;24241;-65
2022/09/22 07:50:59;;;;;;;17.60;7.20;;;;;;;8.36;99.68;101105.09;105901;1270;22540;-65
2022/09/22 07:53:31;;;;;;;17.20;7.20;;;;;;;8.46;99.60;101103.86;106030;1270;22657;-65
2022/09/22 07:56:11;;;;;;;18.50;7.60;;;;;;;8.55;99.64;101102.32;105866;1270;22739;-66
2022/09/22 07:58:48;;;;;;;17.50;7.30;;;;;;;8.64;99.55;101096.16;105903;1270;24448;-65
2022/09/22 08:01:21;;;;;;;16.60;6.60;;;;;;;8.72;99.45;101098.60;105995;1270;22631;-66
2022/09/22 08:03:53;;;;;;;17.30;7.00;;;;;;;8.79;99.47;101094.86;105909;1270;22525;-65
2022/09/22 08:06:26;;;;;;;18.40;6.60;;;;;;;8.87;99.25;101097.95;105986;1270;22537;-65
2022/09/22 08:09:03;;;;;;;14.20;5.70;;;;;;;8.95;99.34;101097.67;105891;1270;22553;-66
2022/09/22 08:11:35;;;;;;;18.20;6.80;;;;;;;9.04;99.27;101096.84;105808;1270;24495;-66
2022/09/22 08:14:11;;;;;;;16.60;4.80;;;;;;;9.12;99.06;101098.00;105958;1270;25135;-67
2022/09/22 08:16:43;;;;;;;14.60;5.50;;;;;;;9.21;98.93;101100.08;106031;1270;22532;-67
2022/09/22 08:19:15;;;;;;;14.30;5.00;;;;;;;9.31;98.66;101102.04;106079;1270;24449;-65
2022/09/22 08:21:50;;;;;;;17.50;6.00;;;;;;;9.41;98.47;101098.05;106080;1270;24270;-65
2022/09/22 08:24:22;;;;;;;15.30;4.80;;;;;;;9.51;98.11;101098.98;105996;1270;22528;-65
2022/09/22 08:26:54;;;;;;;17.40;5.60;;;;;;;9.62;97.96;101102.42;105831;1270;22557;-66
2022/09/22 08:29:27;;;;;;;14.50;4.50;;;;;;;9.70;97.63;101093.36;105982;1270;24265;-66
2022/09/22 08:31:58;;;;;;;8.30;2.00;;;;;;;9.78;97.71;101091.80;106095;1270;24309;-66
2022/09/22 08:34:30;;;;;;;8.50;1.90;;;;;;;9.92;96.51;101094.80;105894;1270;25342;-66
2022/09/22 08:37:01;;;;;;;9.60;1.60;;;;;;;9.99;95.97;101098.59;106149;1270;25492;-67
2022/09/22 08:39:34;;;;;;;9.20;1.90;;;;;;;10.07;95.83;101094.40;106198;1270;24237;-66
2022/09/22 08:42:17;;;;;;;10.10;2.40;;;;;;;10.18;95.93;101092.42;106131;1270;22541;-65
2022/09/22 08:44:59;;;;;;;10.40;2.10;;;;;;;10.30;95.50;101097.23;106084;1270;22541;-66
2022/09/22 08:53:34;;;;;;;11.30;3.40;;;;;;;10.60;94.06;101097.65;105760;1273;26390;-66
2022/09/22 08:56:17;;;;;;;9.80;2.80;;;;;;;10.70;94.32;101093.27;105818;1273;22528;-66
2022/09/22 08:58:57;;;;;;;7.00;1.50;;;;;;;10.79;93.73;101092.98;105986;1273;22529;-66
2022/09/22 09:01:50;;;;;;;5.40;1.10;;;;;;;10.86;92.75;101095.17;106036;1273;23505;-66
2022/09/22 09:04:51;;;;;;;5.30;1.00;;;;;;;10.95;91.63;101092.67;106054;1273;25261;-66
2022/09/22 09:07:31;;;;;;;5.30;1.10;;;;;;;10.99;91.11;101090.73;105883;1273;24518;-66
2022/09/22 09:10:14;;;;;;;;;;;;;;;11.07;91.00;101089.05;105870;1273;22745;-67
2022/09/22 09:13:02;;;;;;;5.60;1.10;;;;;;;11.16;89.95;101089.38;105999;1273;25737;-66
2022/09/22 09:15:54;;;;;;;5.40;1.30;;;;;;;11.25;90.35;101080.48;106035;1273;25249;-67
2022/09/22 09:18:32;;;;;;;5.80;0.90;;;;;;;11.33;89.42;101083.33;105972;1273;22563;-65
2022/09/22 09:21:07;;;;;;;4.70;0.70;;;;;;;11.35;88.28;101082.42;106022;1273;25582;-65
2022/09/22 09:23:45;;;;;;;2.20;0.50;;;;;;;11.37;88.02;101081.15;106006;1273;24407;-65
2022/09/22 09:26:18;;;;;;;2.70;0.50;;;;;;;11.43;86.81;101080.66;106016;1270;24272;-68
2022/09/22 09:28:54;;;;;;;1.30;0.30;;;;;;;11.47;86.63;101081.74;106118;1270;26224;-68
2022/09/22 09:31:37;;;;;;;0.90;0.30;;;;;;;11.56;86.10;101080.73;106231;1270;22975;-68
2022/09/22 09:34:13;;;;;;;0.90;0.20;;;;;;;11.66;83.94;101083.73;106205;1270;24175;-67
2022/09/22 09:36:51;;;;;;;1.50;0.20;;;;;;;11.76;84.45;101080.57;106088;1270;22553;-67
2022/09/22 09:39:28;;;;;;;1.60;0.30;;;;;;;11.84;83.04;101085.36;106210;1270;25263;-67
2022/09/22 09:42:01;;;;;;;2.60;0.20;;;;;;;11.89;81.86;101085.09;106127;1270;22579;-67
2022/09/22 09:44:37;;;;;;;1.10;0.30;;;;;;;11.92;81.13;101083.23;106204;1270;25460;-67
2022/09/22 09:47:20;;;;;;;2.60;0.30;;;;;;;11.97;83.34;101080.27;106127;1270;22586;-67
2022/09/22 09:49:54;;;;;;;3.20;0.40;;;;;;;12.05;82.28;101080.64;106315;1270;22640;-67
2022/09/22 09:52:27;;;;;;;2.20;0.40;;;;;;;12.09;80.94;101074.13;106272;1270;22691;-67
2022/09/22 09:55:03;;;;;;;4.10;0.40;;;;;;;12.22;81.47;101075.62;106224;1270;24331;-67
2022/09/22 09:57:35;;;;;;;1.40;0.30;;;;;;;12.31;81.64;101074.57;105909;1270;22557;-67
2022/09/22 10:00:31;;;;;;;2.90;0.30;;;;;;;12.38;79.59;101079.38;105781;1270;25566;-66
2022/09/22 10:03:22;;;;;;;2.40;0.20;;;;;;;12.42;80.12;101077.24;105817;1270;22540;-67
2022/09/22 10:06:01;;;;;;;1.20;0.30;;;;;;;12.42;80.03;101074.29;105994;1270;25639;-68
2022/09/22 10:08:42;;;;;;;3.00;0.30;;;;;;;12.44;78.13;101074.02;105990;1270;22516;-67
2022/09/22 10:11:15;;;;;;;2.40;0.40;;;;;;;12.48;79.15;101070.46;105933;1270;22531;-67
2022/09/22 10:13:55;;;;;;;2.40;0.50;;;;;;;12.48;78.96;101070.00;105833;1270;22549;-67
2022/09/22 10:16:29;;;;;;;4.70;0.40;;;;;;;12.47;79.97;101070.09;106076;1270;25330;-66
2022/09/22 10:19:24;;;;;;;3.40;0.30;;;;;;;12.52;78.09;101067.63;105984;1270;25544;-69
2022/09/22 10:22:22;;;;;;;4.40;0.40;;;;;;;12.65;77.55;101070.11;106089;1270;24322;-69
2022/09/22 10:25:00;;;;;;;2.20;0.30;;;;;;;12.70;75.94;101070.14;105981;1270;24322;-67
2022/09/22 10:27:32;;;;;;;1.10;0.30;;;;;;;12.74;76.57;101067.84;106256;1270;24063;-68
2022/09/22 10:30:23;;;;;;;2.90;0.30;;;;;;;12.79;75.55;101070.40;106171;1270;25378;-68
2022/09/22 10:33:18;;;;;;;1.40;0.20;;;;;;;12.82;73.94;101071.20;106226;1270;22679;-67
2022/09/22 10:36:03;;;;;;;1.70;0.30;;;;;;;12.87;73.50;101063.29;105606;1274;24282;-68
2022/09/22 10:38:38;;;;;;;1.50;0.20;;;;;;;12.92;74.76;101068.00;105701;1274;24286;-67
2022/09/22 10:41:13;;;;;;;3.40;0.20;;;;;;;12.97;73.35;101062.30;105785;1274;25643;-68
2022/09/22 10:43:53;;;;;;;1.30;0.20;;;;;;;13.02;74.64;101065.64;105797;1274;24693;-67
2022/09/22 10:46:48;;;;;;;3.40;0.40;;;;;;;13.02;72.67;101060.63;105900;1274;22687;-67
2022/09/22 10:49:35;;;;;;;2.40;0.20;;;;;;;13.08;72.83;101063.33;105838;1274;22527;-68
2022/09/22 10:52:15;;;;;;;1.40;0.30;;;;;;;13.13;72.92;101059.21;105773;1275;22529;-68
2022/09/22 10:55:05;;;;;;;1.80;0.20;;;;;;;13.17;73.12;101059.10;105845;1274;24261;-68
2022/09/22 10:58:16;;;;;;;2.00;0.30;;;;;;;13.20;71.92;101060.17;105946;1274;22621;-68
2022/09/22 11:00:48;;;;;;;1.40;0.30;;;;;;;13.24;70.79;101061.23;105759;1274;22539;-68
2022/09/22 11:03:47;;;;;;;2.00;0.40;;;;;;;13.25;69.78;101061.76;105624;1273;25412;-68
2022/09/22 11:12:38;;;;;;;;;;;;;;;13.30;69.63;101059.73;105475;1274;22683;-68
2022/09/22 11:15:26;;;;;;;0.80;0.20;;;;;;;13.33;69.49;101058.92;105661;1273;22703;-68
2022/09/22 11:18:30;;;;;;;2.10;0.30;;;;;;;13.38;68.24;101048.17;105925;1273;22583;-68
2022/09/22 11:21:10;;;;;;;2.60;0.50;;;;;;;13.40;69.21;101042.66;106184;1274;22494;-68
2022/09/22 11:23:58;;;;;;;1.90;0.40;;;;;;;13.42;69.66;101035.61;105550;1274;25262;-68
2022/09/22 11:26:46;;;;;;;2.80;0.30;;;;;;;13.45;69.30;101036.73;105630;1274;24702;-68
2022/09/22 11:29:46;;;;;;;1.80;0.20;;;;;;;13.42;66.18;101035.91;105775;1274;22555;-69
2022/09/22 11:32:35;;;;;;;2.70;0.30;;;;;;;13.39;67.60;101034.41;105623;1274;24299;-68
2022/09/22 11:35:32;;;;;;;1.40;0.30;;;;;;;13.40;67.84;101027.11;105750;1274;25406;-69
2022/09/22 11:38:22;;;;;;;4.20;0.60;;;;;;;13.45;68.71;101021.64;106088;1280;24478;-69
2022/09/22 11:41:20;;;;;;;2.50;0.40;;;;;;;13.49;68.26;101015.95;106145;1279;25226;-69
2022/09/22 11:44:23;;;;;;;1.80;0.40;;;;;;;13.54;67.94;101013.20;106045;1281;22700;-69
2022/09/22 11:47:08;;;;;;;1.80;0.30;;;;;;;13.58;67.32;101012.94;106180;1279;25345;-69
2022/09/22 11:49:58;;;;;;;2.60;0.20;;;;;;;13.62;66.52;101014.52;106248;1276;24413;-69
2022/09/22 11:52:43;;;;;;;1.20;0.20;;;;;;;13.61;67.13;101014.96;106542;1276;22534;-69
2022/09/22 11:55:30;;;;;;;1.50;0.20;;;;;;;13.60;66.39;101011.48;106452;1276;24822;-69
2022/09/22 11:58:06;;;;;;;2.30;0.50;;;;;;;13.61;66.56;101012.30;106434;1276;23174;-69
2022/09/22 12:00:46;;;;;;;3.30;0.30;;;;;;;13.64;66.04;101000.38;106954;1276;22710;-69
2022/09/22 12:03:20;;;;;;;;;;;;;;;13.68;65.36;101000.26;106647;1276;40000;-69
2022/09/22 12:05:58;;;;;;;1.80;0.30;;;;;;;13.71;65.18;100996.13;106305;1277;24320;-69
2022/09/22 12:08:36;;;;;;;2.10;0.40;;;;;;;13.80;65.34;100997.98;106366;1277;24245;-68
2022/09/22 12:11:12;;;;;;;1.20;0.20;;;;;;;13.87;64.58;100998.75;106255;1278;22558;-68
2022/09/22 12:13:47;;;;;;;3.80;0.50;;;;;;;13.89;64.45;100998.44;105759;1277;22586;-68
2022/09/22 12:16:25;;;;;;;0.90;0.20;;;;;;;13.92;64.91;100989.86;105957;1273;22559;-68
2022/09/22 12:19:04;;;;;;;1.30;0.20;;;;;;;13.92;63.71;100996.80;106155;1273;22694;-69